Time;durP1;ratioP1;P1;durP2;ratioP2;P2;SDS_P1;SDS_P2;PMS_P1;PMS_P2;Temp;Humidity;BMP_temperature;BMP_pressure;BME280_temperature;BME280_humidity;BME280_pressure;Samples;Min_cycle;Max_cycle;Signal;HPM_P1;HPM_P2
2021/05/03 00:01:47;;;;;;;8.85;4.57;;;3.80;70.00;;;;;;5033782;28;20078;-77
2021/05/03 00:04:13;;;;;;;6.80;5.40;;;3.70;69.70;;;;;;5046916;28;20082;-77
2021/05/03 00:06:38;;;;;;;5.93;5.03;;;3.60;70.20;;;;;;5046545;28;20028;-77
2021/05/03 00:09:05;;;;;;;10.30;5.78;;;3.50;70.50;;;;;;5038596;28;20028;-76
2021/05/03 00:11:31;;;;;;;7.30;5.75;;;3.40;70.50;;;;;;5018302;28;20054;-77
2021/05/03 00:13:56;;;;;;;7.22;5.68;;;3.30;71.60;;;;;;5034015;28;20029;-77
2021/05/03 00:16:22;;;;;;;9.15;5.68;;;3.30;71.70;;;;;;5017315;28;20108;-77
2021/05/03 00:18:47;;;;;;;6.45;4.72;;;3.40;71.60;;;;;;5050415;28;20388;-77
2021/05/03 00:21:13;;;;;;;5.95;4.25;;;3.40;71.10;;;;;;5047915;28;20035;-77
2021/05/03 00:23:38;;;;;;;8.82;5.75;;;3.40;71.00;;;;;;5038537;28;20149;-77
2021/05/03 00:26:04;;;;;;;6.53;4.97;;;3.20;71.90;;;;;;5030901;28;20028;-77
2021/05/03 00:28:29;;;;;;;10.43;5.53;;;3.20;72.00;;;;;;5018170;28;20024;-77
2021/05/03 00:30:55;;;;;;;9.75;5.72;;;3.20;71.90;;;;;;5032858;28;20024;-77
2021/05/03 00:33:20;;;;;;;7.25;5.53;;;3.10;71.70;;;;;;5028259;28;20029;-77
2021/05/03 00:35:46;;;;;;;7.63;5.20;;;3.00;72.90;;;;;;5034538;28;20016;-77
2021/05/03 00:38:11;;;;;;;7.82;5.80;;;3.00;73.30;;;;;;5044898;28;20442;-77
2021/05/03 00:40:37;;;;;;;6.43;5.22;;;3.00;72.20;;;;;;5032319;28;20484;-77
2021/05/03 00:43:02;;;;;;;7.38;4.78;;;3.00;72.80;;;;;;5015653;28;20020;-77
2021/05/03 00:45:30;;;;;;;8.38;5.65;;;3.10;73.70;;;;;;5048947;28;20036;-77
2021/05/03 00:47:55;;;;;;;6.40;5.50;;;3.00;72.70;;;;;;5030150;28;20052;-77
2021/05/03 00:50:22;;;;;;;6.13;3.90;;;3.00;72.90;;;;;;5064031;28;20036;-77
2021/05/03 00:52:48;;;;;;;6.93;5.10;;;3.00;73.80;;;;;;5050175;28;20031;-77
2021/05/03 00:55:14;;;;;;;7.13;4.32;;;3.00;73.20;;;;;;5028576;28;20028;-77
2021/05/03 00:57:40;;;;;;;11.00;5.47;;;3.00;73.40;;;;;;5032276;28;20109;-77
2021/05/03 01:00:09;;;;;;;10.18;5.25;;;3.00;74.40;;;;;;5016980;28;20052;-77
2021/05/03 01:02:34;;;;;;;7.38;4.50;;;3.00;74.30;;;;;;5045092;28;20037;-77
2021/05/03 01:05:00;;;;;;;6.18;4.30;;;2.90;73.40;;;;;;5033328;28;20483;-76
2021/05/03 01:07:25;;;;;;;7.78;5.32;;;2.90;74.60;;;;;;5044574;28;20040;-77
2021/05/03 01:09:51;;;;;;;7.72;5.47;;;2.90;74.80;;;;;;5049178;28;20500;-77
2021/05/03 01:12:16;;;;;;;8.45;6.05;;;2.80;75.00;;;;;;5010412;28;20543;-77
2021/05/03 01:14:42;;;;;;;8.25;6.22;;;2.70;75.20;;;;;;5027853;28;20025;-77
2021/05/03 01:17:07;;;;;;;10.52;6.85;;;2.60;75.00;;;;;;5047231;28;20114;-77
2021/05/03 01:19:33;;;;;;;7.95;5.70;;;2.50;75.10;;;;;;5012424;28;20085;-77
2021/05/03 01:21:59;;;;;;;8.43;4.82;;;2.60;76.10;;;;;;5017545;28;20143;-77
2021/05/03 01:24:24;;;;;;;8.55;5.63;;;2.80;76.50;;;;;;5016508;28;20245;-76
2021/05/03 01:26:50;;;;;;;8.70;5.85;;;2.70;74.90;;;;;;5051192;28;20035;-77
2021/05/03 01:29:15;;;;;;;10.82;6.78;;;2.40;75.50;;;;;;5030775;28;20051;-77
2021/05/03 01:31:45;;;;;;;6.47;4.60;;;2.30;76.90;;;;;;5035230;28;20028;-77
2021/05/03 01:34:10;;;;;;;9.88;6.03;;;2.30;77.20;;;;;;5046692;28;20384;-78
2021/05/03 01:36:39;;;;;;;6.75;5.32;;;2.50;75.90;;;;;;5031014;28;20024;-77
2021/05/03 01:39:06;;;;;;;11.02;6.65;;;2.40;75.60;;;;;;5029979;28;20090;-77
2021/05/03 01:41:32;;;;;;;10.13;6.80;;;2.50;75.90;;;;;;5033318;28;20515;-76
2021/05/03 01:43:57;;;;;;;11.50;7.13;;;2.40;76.10;;;;;;5028332;28;20126;-76
2021/05/03 01:46:23;;;;;;;10.15;6.47;;;2.30;77.50;;;;;;5043065;28;20479;-76
2021/05/03 01:48:48;;;;;;;11.18;6.15;;;2.30;77.10;;;;;;5014191;28;20111;-77
2021/05/03 01:51:14;;;;;;;11.48;6.53;;;2.30;77.00;;;;;;5028939;28;20082;-77
2021/05/03 01:53:39;;;;;;;9.82;6.28;;;2.40;77.00;;;;;;5017216;28;20084;-77
2021/05/03 01:56:05;;;;;;;9.70;5.00;;;2.40;76.80;;;;;;5023102;28;20101;-77
2021/05/03 01:58:30;;;;;;;8.15;5.45;;;2.30;77.40;;;;;;5018792;28;20031;-77
2021/05/03 02:00:58;;;;;;;7.47;5.47;;;2.50;77.70;;;;;;5031935;28;20044;-77
2021/05/03 02:03:24;;;;;;;9.52;6.20;;;2.30;76.30;;;;;;5041303;28;20477;-77
2021/05/03 02:05:50;;;;;;;9.45;5.93;;;2.20;77.20;;;;;;5056062;28;20151;-77
2021/05/03 02:08:16;;;;;;;8.15;4.88;;;2.20;77.30;;;;;;5052833;28;20208;-77
2021/05/03 02:10:42;;;;;;;12.70;6.22;;;2.30;78.10;;;;;;5070753;28;20399;-76
2021/05/03 02:13:08;;;;;;;9.98;6.00;;;2.30;77.30;;;;;;5020885;28;20043;-75
2021/05/03 02:15:33;;;;;;;10.25;6.28;;;2.30;77.60;;;;;;5020522;28;20025;-76
2021/05/03 02:17:59;;;;;;;11.80;6.10;;;2.20;77.30;;;;;;5036539;28;20530;-76
2021/05/03 02:20:25;;;;;;;6.90;5.20;;;2.20;78.80;;;;;;5034411;28;20157;-75
2021/05/03 02:22:50;;;;;;;10.05;5.78;;;2.20;78.00;;;;;;5038126;28;20079;-75
2021/05/03 02:25:16;;;;;;;5.88;4.32;;;2.20;78.60;;;;;;5031308;28;20044;-76
2021/05/03 02:27:42;;;;;;;9.35;5.50;;;2.30;79.30;;;;;;5038250;28;20024;-75
2021/05/03 02:30:09;;;;;;;8.88;5.63;;;2.30;77.20;;;;;;5036436;28;20145;-75
2021/05/03 02:32:35;;;;;;;9.13;5.22;;;2.10;78.00;;;;;;5020244;28;20494;-75
2021/05/03 02:35:08;;;;;;;7.90;5.20;;;2.20;78.70;;;;;;5036126;28;20029;-75
2021/05/03 02:37:34;;;;;;;7.72;4.93;;;2.20;78.80;;;;;;5033977;28;20511;-76
2021/05/03 02:39:59;;;;;;;8.48;5.78;;;2.10;78.60;;;;;;5057550;28;20060;-76
2021/05/03 02:42:25;;;;;;;8.45;6.38;;;2.10;79.00;;;;;;5032117;28;20366;-75
2021/05/03 02:44:50;;;;;;;8.20;5.30;;;2.10;79.30;;;;;;5053262;28;20079;-75
2021/05/03 02:47:16;;;;;;;9.02;7.28;;;2.30;79.80;;;;;;5031948;28;20028;-75
2021/05/03 02:49:42;;;;;;;10.32;5.93;;;2.40;79.20;;;;;;5033389;28;20025;-75
2021/05/03 02:52:07;;;;;;;8.73;5.80;;;2.20;78.40;;;;;;5035691;28;20150;-76
2021/05/03 02:54:33;;;;;;;9.52;6.60;;;2.20;78.80;;;;;;5033550;28;20111;-76
2021/05/03 02:56:58;;;;;;;13.77;6.25;;;2.10;78.90;;;;;;5035592;28;20391;-76
2021/05/03 02:59:24;;;;;;;9.10;5.53;;;1.80;78.80;;;;;;5034845;28;20040;-75
2021/05/03 03:01:49;;;;;;;8.90;5.60;;;1.90;80.30;;;;;;5051699;28;20024;-75
2021/05/03 03:04:16;;;;;;;10.77;7.20;;;2.10;80.10;;;;;;5033236;28;20040;-76
2021/05/03 03:06:42;;;;;;;10.90;7.18;;;1.90;79.80;;;;;;5048646;28;20077;-76
2021/05/03 03:09:07;;;;;;;11.32;6.38;;;1.70;80.00;;;;;;5052944;28;20099;-75
2021/05/03 03:11:33;;;;;;;8.70;5.68;;;1.80;81.40;;;;;;5050062;28;20032;-76
2021/05/03 03:14:01;;;;;;;10.65;7.53;;;1.70;80.90;;;;;;5019190;28;20036;-76
2021/05/03 03:16:26;;;;;;;13.02;7.78;;;1.80;81.40;;;;;;5037119;28;20396;-75
2021/05/03 03:18:54;;;;;;;14.93;8.45;;;1.60;80.50;;;;;;5033554;28;20032;-75
2021/05/03 03:21:19;;;;;;;12.68;7.32;;;1.50;81.50;;;;;;5034248;28;20033;-75
2021/05/03 03:23:45;;;;;;;13.57;8.55;;;1.60;81.30;;;;;;5035761;28;20467;-75
2021/05/03 03:26:10;;;;;;;12.40;5.88;;;1.50;81.80;;;;;;5027648;28;20040;-75
2021/05/03 03:28:36;;;;;;;9.52;7.30;;;1.70;82.00;;;;;;5047785;28;20032;-76
2021/05/03 03:31:02;;;;;;;9.52;6.15;;;1.80;81.30;;;;;;5018349;28;20029;-76
2021/05/03 03:33:27;;;;;;;12.75;7.05;;;1.70;81.10;;;;;;5048498;28;20147;-75
2021/05/03 03:35:53;;;;;;;14.13;9.27;;;1.60;81.50;;;;;;5034766;28;20214;-76
2021/05/03 03:38:19;;;;;;;13.90;8.50;;;1.30;81.80;;;;;;5049861;28;20103;-76
2021/05/03 03:40:45;;;;;;;11.63;6.97;;;1.20;83.60;;;;;;5035293;28;20119;-75
2021/05/03 03:43:11;;;;;;;11.73;7.60;;;1.20;83.50;;;;;;5013174;28;20025;-75
2021/05/03 03:45:37;;;;;;;8.25;6.60;;;1.20;82.50;;;;;;5030627;28;20052;-75
2021/05/03 03:48:02;;;;;;;10.43;6.20;;;1.30;83.10;;;;;;5018983;28;20033;-76
2021/05/03 03:50:28;;;;;;;9.43;6.10;;;1.70;83.20;;;;;;5018836;28;20500;-76
2021/05/03 03:52:53;;;;;;;10.50;6.82;;;1.80;82.20;;;;;;5034431;28;20028;-76
2021/05/03 03:55:19;;;;;;;12.45;7.03;;;1.70;82.60;;;;;;5026148;28;20033;-76
2021/05/03 03:57:44;;;;;;;14.32;7.00;;;1.60;82.40;;;;;;5033424;28;20092;-76
2021/05/03 04:00:10;;;;;;;12.25;5.78;;;1.60;82.70;;;;;;5032113;28;20052;-77
2021/05/03 04:02:36;;;;;;;12.18;7.47;;;1.70;82.60;;;;;;5053653;28;20063;-75
2021/05/03 04:21:06;;;;;;;9.75;6.60;;;1.70;83.70;;;;;;5047453;28;20059;-76
2021/05/03 04:26:13;;;;;;;11.45;7.43;;;1.70;83.60;;;;;;5052830;28;20056;-76
2021/05/03 04:28:38;;;;;;;10.95;6.50;;;1.70;83.80;;;;;;5046102;28;20024;-75
2021/05/03 04:31:04;;;;;;;11.02;6.95;;;1.50;84.30;;;;;;5037404;28;20322;-75
2021/05/03 04:33:29;;;;;;;12.23;8.13;;;1.70;83.50;;;;;;5017954;28;20377;-76
2021/05/03 04:35:55;;;;;;;14.35;8.05;;;1.70;83.70;;;;;;5033499;28;20488;-75
2021/05/03 04:38:20;;;;;;;12.85;8.35;;;1.70;83.40;;;;;;5018787;28;20084;-75
2021/05/03 04:40:46;;;;;;;15.93;9.75;;;1.60;83.90;;;;;;5048972;28;20029;-75
2021/05/03 04:43:14;;;;;;;13.30;7.75;;;1.70;84.30;;;;;;5016653;28;20108;-76
2021/05/03 04:45:40;;;;;;;11.52;7.10;;;1.70;84.40;;;;;;5016545;28;20036;-75
2021/05/03 04:48:06;;;;;;;12.50;8.68;;;1.90;83.10;;;;;;5047868;28;20480;-76
2021/05/03 04:50:31;;;;;;;11.55;8.88;;;1.90;83.30;;;;;;5032594;28;20039;-75
2021/05/03 04:52:57;;;;;;;14.07;9.07;;;2.00;83.30;;;;;;5032584;28;20720;-76
2021/05/03 04:55:22;;;;;;;14.05;9.88;;;2.00;82.90;;;;;;5029969;28;20052;-75
2021/05/03 04:57:48;;;;;;;14.45;9.90;;;2.20;82.50;;;;;;5034319;28;20040;-75
2021/05/03 05:00:15;;;;;;;12.45;8.63;;;2.20;83.70;;;;;;5017721;28;20510;-75
2021/05/03 05:02:40;;;;;;;17.58;10.18;;;2.40;82.40;;;;;;5018814;28;20052;-76
2021/05/03 05:05:11;;;;;;;11.57;8.18;;;2.40;82.70;;;;;;5045668;28;20075;-76
2021/05/03 05:07:37;;;;;;;17.30;8.68;;;2.50;81.70;;;;;;5028724;28;20504;-76
2021/05/03 05:10:03;;;;;;;14.32;8.52;;;2.70;82.20;;;;;;5027160;28;20230;-75
2021/05/03 05:12:28;;;;;;;15.05;11.00;;;2.80;81.80;;;;;;5016991;28;20442;-75
2021/05/03 05:14:54;;;;;;;15.10;8.43;;;2.90;82.50;;;;;;5017527;28;20047;-76
2021/05/03 05:17:19;;;;;;;15.48;9.93;;;3.00;82.30;;;;;;5016935;28;20211;-76
2021/05/03 05:19:47;;;;;;;9.30;6.55;;;3.10;83.70;;;;;;5033178;28;20024;-75
2021/05/03 05:22:12;;;;;;;13.45;6.53;;;3.30;81.80;;;;;;5044464;28;20028;-75
2021/05/03 05:24:38;;;;;;;16.10;11.73;;;3.50;81.20;;;;;;5030361;28;20036;-75
2021/05/03 05:27:04;;;;;;;16.98;11.95;;;3.60;85.30;;;;;;5014545;28;20524;-75
2021/05/03 05:29:29;;;;;;;16.52;12.45;;;3.80;86.30;;;;;;5016179;28;20032;-75
2021/05/03 05:31:55;;;;;;;17.50;10.70;;;3.90;84.90;;;;;;5015853;28;20054;-74
2021/05/03 05:34:20;;;;;;;14.80;11.40;;;4.20;83.40;;;;;;5027796;28;20652;-75
2021/05/03 05:36:46;;;;;;;17.38;12.15;;;4.40;85.60;;;;;;5032609;28;20441;-75
2021/05/03 05:39:12;;;;;;;20.42;12.23;;;4.60;83.70;;;;;;5016780;28;20054;-75
2021/05/03 05:41:39;;;;;;;15.95;10.80;;;4.90;84.20;;;;;;5026138;28;20102;-75
2021/05/03 05:44:06;;;;;;;19.33;11.95;;;5.10;78.60;;;;;;5010579;28;20566;-75
2021/05/03 05:46:32;;;;;;;14.20;8.70;;;5.30;81.20;;;;;;5030943;28;20032;-75
2021/05/03 05:48:58;;;;;;;9.88;5.45;;;5.50;81.30;;;;;;5031783;28;20484;-74
2021/05/03 05:51:23;;;;;;;11.98;5.00;;;5.40;76.90;;;;;;5030406;28;20032;-76
2021/05/03 05:53:49;;;;;;;10.50;6.47;;;5.30;77.20;;;;;;5049029;28;20066;-76
2021/05/03 05:56:14;;;;;;;9.00;5.35;;;5.30;78.50;;;;;;5043386;28;20098;-75
2021/05/03 05:58:40;;;;;;;8.52;4.80;;;5.30;78.90;;;;;;5033485;28;20024;-75
2021/05/03 06:01:05;;;;;;;10.18;6.38;;;5.30;80.10;;;;;;5029547;28;20020;-75
2021/05/03 06:03:31;;;;;;;9.70;5.20;;;5.40;80.60;;;;;;5039638;28;20051;-75
2021/05/03 06:05:57;;;;;;;7.55;5.32;;;5.40;80.30;;;;;;5034511;28;20067;-75
2021/05/03 06:08:24;;;;;;;12.32;5.35;;;5.70;78.90;;;;;;5038422;28;20557;-75
2021/05/03 06:10:49;;;;;;;8.02;5.15;;;6.00;77.70;;;;;;5049771;28;20085;-75
2021/05/03 06:13:15;;;;;;;6.63;4.40;;;6.20;77.60;;;;;;5012140;28;20488;-75
2021/05/03 06:15:40;;;;;;;11.18;6.50;;;6.10;78.40;;;;;;5018661;28;20050;-74
2021/05/03 06:18:06;;;;;;;7.63;4.22;;;6.30;79.20;;;;;;5032456;28;20032;-74
2021/05/03 06:20:32;;;;;;;8.20;6.68;;;6.40;78.30;;;;;;5017573;28;20550;-74
2021/05/03 06:23:02;;;;;;;9.00;5.20;;;6.80;79.40;;;;;;5013599;28;20619;-75
2021/05/03 06:25:27;;;;;;;33.55;6.60;;;7.00;77.30;;;;;;5064150;28;20590;-75
2021/05/03 06:27:53;;;;;;;9.13;6.30;;;7.20;77.30;;;;;;5027771;28;20028;-74
2021/05/03 06:30:21;;;;;;;4.65;3.38;;;7.40;77.30;;;;;;5040923;28;20087;-74
2021/05/03 06:32:46;;;;;;;8.25;5.25;;;7.30;76.90;;;;;;5015508;28;20119;-74
2021/05/03 06:35:12;;;;;;;11.80;6.07;;;7.40;76.50;;;;;;5031793;28;20105;-74
2021/05/03 06:37:37;;;;;;;11.10;5.47;;;7.60;76.40;;;;;;5037648;28;20029;-74
2021/05/03 06:40:03;;;;;;;12.88;5.78;;;7.80;75.60;;;;;;5027962;28;20033;-75
2021/05/03 06:42:29;;;;;;;5.85;3.78;;;8.00;75.80;;;;;;5033228;28;20049;-75
2021/05/03 06:44:54;;;;;;;8.60;3.65;;;8.00;75.00;;;;;;5046999;28;20028;-74
2021/05/03 06:47:20;;;;;;;7.50;4.13;;;8.00;75.10;;;;;;5049864;28;20318;-74
2021/05/03 06:49:45;;;;;;;8.35;3.72;;;7.90;75.10;;;;;;5035879;28;20135;-74
2021/05/03 06:52:11;;;;;;;7.68;4.18;;;8.00;75.30;;;;;;5032226;28;20029;-75
2021/05/03 06:54:36;;;;;;;7.35;4.70;;;8.20;74.70;;;;;;5033398;28;20028;-75
2021/05/03 06:57:02;;;;;;;8.50;4.75;;;8.20;74.40;;;;;;5028968;28;20070;-74
2021/05/03 06:59:27;;;;;;;8.77;5.80;;;8.40;74.60;;;;;;5016457;28;20127;-73
2021/05/03 07:01:54;;;;;;;5.38;4.28;;;8.60;74.70;;;;;;5030708;28;20033;-75
2021/05/03 07:04:19;;;;;;;7.43;3.88;;;8.60;73.10;;;;;;5014519;28;20055;-75
2021/05/03 07:06:45;;;;;;;7.82;4.38;;;8.40;73.10;;;;;;5033577;28;20037;-75
2021/05/03 07:09:10;;;;;;;5.97;3.15;;;8.50;72.50;;;;;;5016701;28;20028;-75
2021/05/03 07:11:36;;;;;;;7.53;5.05;;;8.50;72.20;;;;;;5041728;28;20074;-75
2021/05/03 07:14:03;;;;;;;9.18;4.90;;;8.60;71.90;;;;;;5028753;28;20130;-75
2021/05/03 07:16:28;;;;;;;9.98;4.97;;;8.80;71.70;;;;;;5015970;28;20550;-75
2021/05/03 07:18:54;;;;;;;3.97;2.75;;;8.80;71.60;;;;;;5024742;28;20056;-75
2021/05/03 07:21:20;;;;;;;5.35;3.55;;;8.60;70.90;;;;;;5029075;28;20033;-75
2021/05/03 07:23:48;;;;;;;6.20;4.47;;;8.90;71.20;;;;;;5049222;28;20028;-75
2021/05/03 07:26:14;;;;;;;4.43;3.10;;;9.10;70.50;;;;;;5030086;28;20115;-75
2021/05/03 07:28:39;;;;;;;3.95;2.75;;;9.10;69.50;;;;;;5030293;28;20120;-75
2021/05/03 07:31:07;;;;;;;6.32;3.85;;;9.10;68.90;;;;;;5028205;28;20766;-75
2021/05/03 07:33:32;;;;;;;8.23;3.13;;;9.20;69.00;;;;;;5016625;28;20515;-75
2021/05/03 07:35:58;;;;;;;8.75;4.35;;;9.20;68.50;;;;;;5015159;28;20025;-75
2021/05/03 07:38:23;;;;;;;2.42;2.17;;;9.60;68.70;;;;;;5026204;28;20362;-76
2021/05/03 07:40:49;;;;;;;3.63;2.53;;;9.70;68.20;;;;;;5029849;28;20027;-76
2021/05/03 07:43:15;;;;;;;5.95;3.53;;;9.70;67.40;;;;;;5025191;28;20028;-76
2021/05/03 07:45:40;;;;;;;7.45;3.53;;;9.90;66.30;;;;;;5014479;28;20399;-76
2021/05/03 07:48:06;;;;;;;7.97;4.53;;;10.10;64.50;;;;;;5014559;28;20119;-75
2021/05/03 07:50:31;;;;;;;4.32;3.08;;;10.40;63.70;;;;;;5015236;28;20037;-77
2021/05/03 07:52:58;;;;;;;2.72;2.42;;;10.50;63.00;;;;;;5015628;28;20031;-77
2021/05/03 07:55:23;;;;;;;4.43;3.03;;;10.50;61.70;;;;;;5045908;28;20444;-76
2021/05/03 07:57:50;;;;;;;6.05;4.40;;;10.60;61.90;;;;;;5050556;28;20067;-77
2021/05/03 08:00:16;;;;;;;7.03;2.90;;;10.60;61.40;;;;;;5018049;28;20123;-77
2021/05/03 08:02:41;;;;;;;8.15;3.55;;;11.00;60.10;;;;;;5028940;28;20052;-76
2021/05/03 08:05:07;;;;;;;6.68;2.40;;;11.00;59.90;;;;;;5011847;28;20503;-77
2021/05/03 08:07:33;;;;;;;6.65;3.05;;;10.90;59.80;;;;;;5015079;28;20464;-76
2021/05/03 08:09:59;;;;;;;4.72;3.08;;;11.20;59.60;;;;;;5024749;28;20024;-76
2021/05/03 08:12:24;;;;;;;5.95;4.30;;;11.50;59.80;;;;;;5013762;28;20046;-77
2021/05/03 08:14:51;;;;;;;6.70;2.17;;;11.80;59.40;;;;;;5014740;28;20867;-78
2021/05/03 08:17:17;;;;;;;5.90;3.03;;;12.20;57.60;;;;;;5013539;28;20542;-77
2021/05/03 08:19:45;;;;;;;6.30;3.80;;;12.30;58.00;;;;;;5014727;28;20035;-77
2021/05/03 08:22:10;;;;;;;5.45;3.72;;;12.40;57.20;;;;;;5016960;28;20029;-77
2021/05/03 08:24:36;;;;;;;1.45;1.30;;;12.90;55.60;;;;;;5022560;28;20443;-77
2021/05/03 08:27:02;;;;;;;6.93;3.00;;;12.60;55.10;;;;;;5013720;28;20438;-77
2021/05/03 08:29:28;;;;;;;6.18;2.72;;;12.90;55.10;;;;;;5024180;28;20541;-77
2021/05/03 08:31:56;;;;;;;4.82;3.30;;;13.10;54.70;;;;;;5046207;28;20036;-78
2021/05/03 08:34:21;;;;;;;6.00;2.97;;;13.50;55.10;;;;;;5042966;28;20293;-78
2021/05/03 08:36:49;;;;;;;6.32;3.90;;;13.60;55.10;;;;;;5027617;28;20020;-78
2021/05/03 08:39:14;;;;;;;5.28;2.13;;;13.60;57.60;;;;;;5030827;28;20028;-77
2021/05/03 08:41:40;;;;;;;9.25;3.53;;;13.80;55.00;;;;;;5030993;28;20134;-78
2021/05/03 08:44:07;;;;;;;6.50;3.13;;;14.10;57.70;;;;;;5014529;28;20104;-78
2021/05/03 08:46:38;;;;;;;5.78;4.40;;;14.30;54.80;;;;;;5014900;28;20353;-77
2021/05/03 08:51:46;;;;;;;7.72;3.55;;;14.60;52.90;;;;;;5029677;28;20325;-77
2021/05/03 08:54:20;;;;;;;2.10;1.88;;;14.90;52.60;;;;;;5041406;28;20140;-78
2021/05/03 08:56:46;;;;;;;10.32;3.78;;;15.00;50.80;;;;;;5024083;28;20091;-78
2021/05/03 08:59:13;;;;;;;10.88;3.90;;;15.00;50.70;;;;;;5013906;28;20500;-78
2021/05/03 09:01:42;;;;;;;4.15;2.50;;;15.10;51.10;;;;;;5023303;28;20025;-77
2021/05/03 09:04:07;;;;;;;6.55;4.45;;;15.10;51.40;;;;;;5026421;28;20034;-77
2021/05/03 09:06:33;;;;;;;8.07;4.40;;;15.10;54.20;;;;;;5015731;28;20032;-77
2021/05/03 09:09:06;;;;;;;5.72;3.95;;;15.00;52.10;;;;;;5030536;28;20017;-77
2021/05/03 09:11:33;;;;;;;6.78;4.65;;;15.30;52.10;;;;;;5029237;28;20475;-77
2021/05/03 09:14:14;;;;;;;5.10;4.10;;;15.60;55.30;;;;;;5026030;28;20020;-78
2021/05/03 09:16:41;;;;;;;4.90;4.22;;;15.80;54.20;;;;;;5026025;28;20127;-77
2021/05/03 09:19:08;;;;;;;5.60;3.72;;;15.70;51.10;;;;;;5010350;28;20618;-78
2021/05/03 09:21:33;;;;;;;6.38;3.38;;;15.60;50.90;;;;;;5027970;28;20036;-78
2021/05/03 09:24:13;;;;;;;3.97;2.03;;;15.70;50.50;;;;;;5044313;28;20444;-78
2021/05/03 09:27:00;;;;;;;8.02;3.80;;;16.10;48.00;;;;;;5030385;28;20230;-78
2021/05/03 09:29:34;;;;;;;8.95;3.92;;;16.20;48.10;;;;;;5015170;28;20090;-78
2021/05/03 09:32:03;;;;;;;7.28;3.97;;;16.60;46.50;;;;;;5026428;28;20028;-77
2021/05/03 09:34:36;;;;;;;6.28;3.67;;;16.80;48.30;;;;;;5063926;28;20246;-77
2021/05/03 09:37:18;;;;;;;6.93;3.42;;;16.50;48.30;;;;;;5043930;28;20032;-77
2021/05/03 09:40:02;;;;;;;4.70;2.60;;;16.80;45.90;;;;;;5041963;28;20358;-78
2021/05/03 09:42:50;;;;;;;5.10;2.95;;;16.80;45.40;;;;;;5042302;28;20055;-78
2021/05/03 09:45:24;;;;;;;4.60;3.30;;;17.00;46.10;;;;;;5027428;28;20124;-78
2021/05/03 09:47:51;;;;;;;5.68;2.80;;;17.20;44.50;;;;;;5010053;28;20086;-78
2021/05/03 09:50:19;;;;;;;4.72;2.95;;;16.80;46.30;;;;;;5010323;28;20051;-78
2021/05/03 09:53:06;;;;;;;8.20;4.82;;;17.10;44.10;;;;;;5020255;28;20106;-78
2021/05/03 09:55:49;;;;;;;9.57;4.07;;;17.40;46.20;;;;;;5044194;28;20036;-78
2021/05/03 09:58:22;;;;;;;5.43;2.15;;;17.30;45.80;;;;;;5027648;28;20138;-78
2021/05/03 10:00:48;;;;;;;6.18;3.22;;;17.10;44.80;;;;;;5029029;28;20028;-78
2021/05/03 10:03:39;;;;;;;5.72;3.47;;;17.10;46.70;;;;;;5031072;28;20167;-78
2021/05/03 10:06:08;;;;;;;4.88;3.33;;;17.00;44.90;;;;;;5015273;28;20042;-78
2021/05/03 10:08:34;;;;;;;6.53;3.15;;;17.10;44.80;;;;;;5016480;28;20035;-78
2021/05/03 10:11:04;;;;;;;4.60;3.90;;;16.80;44.10;;;;;;5031539;28;20036;-79
2021/05/03 10:13:30;;;;;;;5.28;3.78;;;17.00;43.80;;;;;;5033600;28;20060;-78
2021/05/03 10:15:57;;;;;;;5.32;3.10;;;17.50;43.30;;;;;;5004556;28;20059;-78
2021/05/03 10:18:22;;;;;;;6.47;4.45;;;17.20;42.70;;;;;;5030293;28;20120;-79
2021/05/03 10:20:48;;;;;;;5.53;3.58;;;17.40;44.70;;;;;;5031049;28;20107;-78
2021/05/03 10:23:14;;;;;;;6.95;3.92;;;17.70;44.10;;;;;;5030044;28;20044;-78
2021/05/03 10:25:42;;;;;;;6.30;3.78;;;17.70;41.90;;;;;;5016154;28;20135;-79
2021/05/03 10:28:08;;;;;;;3.67;3.35;;;17.60;42.00;;;;;;5031623;28;20043;-79
2021/05/03 10:30:43;;;;;;;3.90;3.03;;;17.90;42.60;;;;;;5016641;28;20028;-79
2021/05/03 10:33:10;;;;;;;4.80;3.05;;;18.00;43.00;;;;;;5016131;28;20036;-79
2021/05/03 10:35:42;;;;;;;9.52;3.67;;;18.00;41.20;;;;;;5020558;28;20033;-79
2021/05/03 10:38:27;;;;;;;3.90;3.50;;;18.10;41.60;;;;;;5039626;28;20075;-79
2021/05/03 10:40:53;;;;;;;7.10;2.47;;;18.50;41.80;;;;;;5049112;28;20032;-80
2021/05/03 10:43:21;;;;;;;5.57;3.03;;;18.60;40.60;;;;;;5012762;28;20036;-79
2021/05/03 10:46:00;;;;;;;3.10;2.33;;;18.70;40.90;;;;;;5011841;28;20118;-80
2021/05/03 10:54:25;;;;;;;4.78;3.10;;;19.30;39.70;;;;;;5067605;28;20028;-80
2021/05/03 10:56:51;;;;;;;7.72;4.43;;;19.30;40.20;;;;;;5038607;28;20793;-79
2021/05/03 10:59:17;;;;;;;7.72;4.28;;;19.40;42.10;;;;;;5028082;28;20119;-80
2021/05/03 11:01:52;;;;;;;6.25;4.65;;;19.60;41.90;;;;;;5009312;28;20124;-80
2021/05/03 11:04:21;;;;;;;6.00;3.40;;;19.40;40.10;;;;;;4366760;28;10000488;-80
2021/05/03 11:06:46;;;;;;;4.25;3.55;;;19.10;39.70;;;;;;5013926;28;20029;-80
2021/05/03 11:09:30;;;;;;;3.72;3.15;;;18.80;40.80;;;;;;5035022;28;20033;-79
2021/05/03 11:12:05;;;;;;;5.22;3.70;;;19.10;39.80;;;;;;5055602;28;20020;-79
2021/05/03 11:14:32;;;;;;;9.38;3.85;;;19.50;41.70;;;;;;4694580;28;10000530;-80
2021/05/03 11:17:01;;;;;;;4.80;3.03;;;19.20;39.60;;;;;;5013136;28;20142;-79
2021/05/03 11:20:08;;;;;;;6.40;3.72;;;19.10;39.90;;;;;;5046366;28;20040;-79
2021/05/03 11:23:03;;;;;;;4.85;3.42;;;18.90;37.50;;;;;;5035043;28;20116;-79
2021/05/03 11:25:31;;;;;;;5.30;4.10;;;19.10;38.30;;;;;;5016156;28;20086;-79
2021/05/03 11:28:19;;;;;;;3.42;2.60;;;19.00;39.40;;;;;;5012668;28;20152;-80
2021/05/03 11:30:49;;;;;;;9.65;3.22;;;19.10;38.00;;;;;;4673256;28;9999843;-79
2021/05/03 11:33:19;;;;;;;7.07;4.15;;;18.90;36.40;;;;;;5015931;28;20067;-79
2021/05/03 11:35:58;;;;;;;7.95;4.80;;;18.80;37.00;;;;;;5015578;28;20032;-79
2021/05/03 11:46:12;;;;;;;4.50;2.85;;;19.40;37.70;;;;;;5040451;28;20067;-80
2021/05/03 11:48:38;;;;;;;4.03;2.90;;;20.00;38.10;;;;;;5026396;28;20029;-80
2021/05/03 11:51:10;;;;;;;7.85;3.47;;;20.30;37.50;;;;;;5024842;28;20051;-80
2021/05/03 11:53:36;;;;;;;4.93;2.85;;;19.70;36.20;;;;;;5045262;28;20041;-80
2021/05/03 11:56:22;;;;;;;4.53;3.72;;;19.00;36.40;;;;;;5031728;28;20120;-80
2021/05/03 11:58:50;;;;;;;3.72;2.95;;;19.90;36.50;;;;;;5032560;28;20501;-80
2021/05/03 12:01:16;;;;;;;3.80;2.60;;;19.10;37.00;;;;;;5048763;28;20059;-80
2021/05/03 12:03:45;;;;;;;6.57;4.75;;;19.00;36.60;;;;;;5030880;28;20484;-81
2021/05/03 12:06:10;;;;;;;6.68;4.35;;;19.00;37.10;;;;;;5029093;28;20044;-81
2021/05/03 12:08:36;;;;;;;6.65;4.32;;;18.90;36.80;;;;;;5013705;28;20035;-81
2021/05/03 12:11:08;;;;;;;6.97;4.75;;;19.30;36.80;;;;;;5028234;28;20083;-81
2021/05/03 12:13:34;;;;;;;4.40;4.00;;;19.80;36.90;;;;;;5049168;28;20440;-81
2021/05/03 12:15:59;;;;;;;5.65;5.05;;;19.70;35.90;;;;;;5008644;28;20155;-82
2021/05/03 12:18:25;;;;;;;5.68;4.90;;;19.40;35.70;;;;;;5015668;28;20051;-81
2021/05/03 12:20:51;;;;;;;6.90;4.20;;;19.40;36.30;;;;;;5016203;28;20029;-81
2021/05/03 12:23:16;;;;;;;6.88;5.10;;;20.00;38.80;;;;;;5015157;28;20033;-81
2021/05/03 12:28:12;;;;;;;4.75;4.10;;;19.80;37.80;;;;;;5032356;28;20045;-82
2021/05/03 12:30:38;;;;;;;6.07;5.10;;;19.60;38.30;;;;;;5055117;28;20032;-82
2021/05/03 12:33:18;;;;;;;6.88;5.13;;;19.20;37.30;;;;;;5011858;28;20395;-82
2021/05/03 12:35:44;;;;;;;4.72;3.53;;;19.00;37.60;;;;;;5030448;28;20025;-82
2021/05/03 12:38:28;;;;;;;6.45;5.15;;;19.50;39.30;;;;;;5027085;28;20337;-82
2021/05/03 12:40:54;;;;;;;6.60;3.53;;;19.30;39.90;;;;;;5060968;28;20040;-82
2021/05/03 12:43:26;;;;;;;4.30;3.45;;;19.40;38.90;;;;;;5016716;28;20033;-81
2021/05/03 12:48:41;;;;;;;5.78;4.30;;;19.30;39.50;;;;;;5032314;28;20036;-81
2021/05/03 12:59:00;;;;;;;5.43;4.57;;;20.20;39.30;;;;;;5050372;28;20036;-81
2021/05/03 13:06:51;;;;;;;4.93;2.70;;;18.40;38.20;;;;;;5028953;28;20032;-81
2021/05/03 13:09:58;;;;;;;7.05;3.67;;;18.10;39.10;;;;;;5018808;28;20047;-82
2021/05/03 13:29:00;;;;;;;6.18;3.83;;;18.50;39.20;;;;;;5036188;28;20055;-81
2021/05/03 13:31:30;;;;;;;5.25;3.08;;;18.20;38.50;;;;;;5065353;28;20108;-81
2021/05/03 13:33:56;;;;;;;6.35;4.35;;;18.10;39.10;;;;;;5027835;28;20123;-81
2021/05/03 13:36:22;;;;;;;7.55;3.88;;;17.80;38.70;;;;;;5011412;28;20063;-80
2021/05/03 13:38:48;;;;;;;7.78;5.47;;;18.20;38.20;;;;;;5047043;28;20058;-81
2021/05/03 13:41:13;;;;;;;9.32;5.63;;;17.90;38.80;;;;;;5023809;28;20280;-81
2021/05/03 13:43:39;;;;;;;3.53;2.83;;;17.80;39.20;;;;;;5013153;28;20037;-82
2021/05/03 13:46:04;;;;;;;8.05;4.43;;;17.70;39.00;;;;;;5013828;28;20060;-81
2021/05/03 13:48:30;;;;;;;6.63;3.72;;;18.00;39.30;;;;;;5012159;28;20514;-82
2021/05/03 13:50:55;;;;;;;11.60;5.13;;;18.00;38.90;;;;;;5024953;28;20051;-81
2021/05/03 13:53:21;;;;;;;15.88;5.80;;;17.70;39.50;;;;;;5015193;28;20060;-80
2021/05/03 13:55:47;;;;;;;7.38;4.35;;;17.50;38.70;;;;;;5029427;28;20118;-81
2021/05/03 13:58:12;;;;;;;12.27;5.75;;;17.30;38.70;;;;;;5027959;28;20049;-82
2021/05/03 14:00:38;;;;;;;8.68;4.03;;;17.40;39.60;;;;;;5031454;28;20033;-81
2021/05/03 14:03:04;;;;;;;9.30;3.83;;;17.40;38.30;;;;;;5012760;28;20032;-82